Peterborough Airport
CYPQ : now visible

Airfield :











YOU CAN JOIN US ON...

 
LOGIN :

Register | Disclaimer

   EN    FR    IT 

 









Legend :    VFR   Marginal VFR   IFR   Intensive IFR   Very Intensive IFR
Visi :
Ceiling :
>= 8 km
>= 3000ft
5 to 8 km
1000 to 3000 ft
1500m to 5 km
500 to 1000 ft
800 to 1500m
200 to 500 ft
< 800m
< 200 ft
Symbols :   Thunderstorms  Fog  Heavy snow  Heavy precipitations  Wind > 20 kt






- Airport Elevation : 628 ft
- IATA code : YPQ


CYPQ - Peterborough

CURRENT METAR :
  • 282100Z AUTO 30010KT 9SM BKN019 OVC031 M01/M03 A2992 RMK SLP141

EXPIRED METARs :
  • 282000Z AUTO 31007G15KT 9SM OVC019 M01/M03 A2990 RMK SLP136
  • 281900Z AUTO 30010KT 9SM OVC019 M01/M04 A2989 RMK SLP133

TAF TAF CYPQ
Valid from the 28 at 20:00 until the 29 at 03:00 UTC


281938Z 2820/2903 32010KT P6SM OVC020
TEMPO 2820/2903 OVC025
BECMG 2823/2901 35006KT RMK FCST BASED ON AUTO OBS. NXT FCST WILL BE ISSUED AT 291045Z



MET'MAP, your aeronautical weather chart ! - Copyright ORBIFLY December 2007 - Disclaimer

ORBIFLY MET'MAP TEAM :

Programming & Development : Alexandra Zaïnal
Concept & original design : Baudouin d'Aumeries
Assistance for programming : Marc-Olivier Méhu
Technical & hardware support : Manuel Goepfert

Contact : metmap@orbifly.com




SOURCES & CREDITS :

   NOAA       Earth
Advisory